createdAt,value
2023-04-24T00:02:00.232Z,12.44
2023-04-24T00:04:27.765Z,12.43
2023-04-24T00:07:01.252Z,12.47
2023-04-24T00:09:28.483Z,12.48
2023-04-24T00:11:55.793Z,12.31
2023-04-24T00:14:23.341Z,12.43
2023-04-24T00:16:50.423Z,12.41
2023-04-24T00:19:17.608Z,12.39
2023-04-24T00:21:44.851Z,12.27
2023-04-24T00:24:11.990Z,12.29
2023-04-24T00:26:39.033Z,12.08
2023-04-24T00:29:06.134Z,12.29
2023-04-24T00:31:35.965Z,12.27
2023-04-24T00:34:04.108Z,12.15
2023-04-24T00:36:32.053Z,12.27
2023-04-24T00:38:59.346Z,12.26
2023-04-24T00:41:26.969Z,12.19
2023-04-24T00:43:54.141Z,12.22
2023-04-24T00:46:22.161Z,12.20
2023-04-24T00:48:49.221Z,12.17
2023-04-24T00:51:16.949Z,12.17
2023-04-24T00:53:43.987Z,12.04
2023-04-24T00:56:11.781Z,11.88
2023-04-24T00:58:39.366Z,12.10
2023-04-24T01:01:08.375Z,12.08
2023-04-24T01:03:38.346Z,12.02
2023-04-24T01:06:06.574Z,11.89
2023-04-24T01:08:35.824Z,11.93
2023-04-24T01:11:06.108Z,11.86
2023-04-24T01:13:34.160Z,11.89
2023-04-24T01:16:02.413Z,11.87
2023-04-24T01:18:30.145Z,11.72
2023-04-24T01:21:00.267Z,11.79
2023-04-24T01:23:27.886Z,11.73
2023-04-24T01:25:55.286Z,11.80
2023-04-24T01:28:23.370Z,11.68
2023-04-24T01:30:51.020Z,11.69
2023-04-24T01:33:18.786Z,11.65
2023-04-24T01:35:46.419Z,11.57
2023-04-24T01:38:13.465Z,11.54
2023-04-24T01:40:40.795Z,11.37
2023-04-24T01:43:08.307Z,11.46
2023-04-24T01:45:35.442Z,11.44
2023-04-24T01:48:05.232Z,11.45
2023-04-24T01:50:32.611Z,11.45
2023-04-24T01:52:59.725Z,11.26
2023-04-24T01:55:27.127Z,11.31
2023-04-24T01:57:56.861Z,11.35
2023-04-24T02:00:25.700Z,11.24
2023-04-24T02:02:54.690Z,11.24
2023-04-24T02:05:21.879Z,11.35
2023-04-24T02:07:48.906Z,11.34
2023-04-24T02:10:15.965Z,11.32
2023-04-24T02:12:44.458Z,11.34
2023-04-24T02:15:12.757Z,11.30
2023-04-24T02:17:40.333Z,11.31
2023-04-24T02:20:09.540Z,11.29
2023-04-24T02:22:36.774Z,11.17
2023-04-24T02:25:04.609Z,11.22
2023-04-24T02:27:34.478Z,11.18
2023-04-24T02:30:01.799Z,11.25
2023-04-24T02:32:35.034Z,11.30
2023-04-24T02:35:02.631Z,11.30
2023-04-24T02:37:31.230Z,11.32
2023-04-24T02:39:58.225Z,11.32
2023-04-24T02:42:25.389Z,11.25
2023-04-24T02:44:52.516Z,11.27
2023-04-24T02:47:19.582Z,11.31
2023-04-24T02:49:46.883Z,11.32
2023-04-24T02:52:14.532Z,11.29
2023-04-24T02:54:41.597Z,11.22
2023-04-24T02:57:08.604Z,11.33
2023-04-24T02:59:35.936Z,11.33
2023-04-24T03:02:02.973Z,11.36
2023-04-24T03:04:30.204Z,11.30
2023-04-24T03:06:57.492Z,11.44
2023-04-24T03:09:24.743Z,11.30
2023-04-24T03:11:51.809Z,11.65
2023-04-24T03:14:18.857Z,11.79
2023-04-24T03:16:46.151Z,11.91
2023-04-24T03:19:13.836Z,11.88
2023-04-24T03:21:58.244Z,12.01
2023-04-24T03:24:25.833Z,12.24
2023-04-24T03:26:53.076Z,12.42
2023-04-24T03:29:38.308Z,12.54
2023-04-24T03:32:05.406Z,12.55
2023-04-24T03:34:32.933Z,12.65
2023-04-24T03:36:59.974Z,12.73
2023-04-24T03:39:28.465Z,12.79
2023-04-24T03:41:56.980Z,12.91
2023-04-24T03:44:31.359Z,12.95
2023-04-24T03:46:59.596Z,13.04
2023-04-24T03:49:27.154Z,13.13
2023-04-24T03:51:54.997Z,13.19
2023-04-24T03:54:24.604Z,13.64
2023-04-24T03:56:53.235Z,13.86
2023-04-24T03:59:20.913Z,14.03
2023-04-24T04:01:58.434Z,14.35
2023-04-24T04:04:26.129Z,14.54
2023-04-24T04:06:54.414Z,14.60
2023-04-24T04:09:22.589Z,14.56
2023-04-24T04:11:49.577Z,14.99
2023-04-24T04:14:16.608Z,15.00
2023-04-24T04:16:47.301Z,15.18
2023-04-24T04:19:15.114Z,15.39
2023-04-24T04:21:42.448Z,15.68
2023-04-24T04:24:31.816Z,15.94
2023-04-24T04:27:00.415Z,16.26
2023-04-24T04:29:35.736Z,16.56
2023-04-24T04:32:05.392Z,16.62
2023-04-24T04:34:32.611Z,16.69
2023-04-24T04:37:03.292Z,16.42
2023-04-24T04:39:46.871Z,16.65
2023-04-24T04:42:20.122Z,16.57
2023-04-24T04:44:47.407Z,16.72
2023-04-24T04:47:25.937Z,16.93
2023-04-24T04:49:54.808Z,17.09
2023-04-24T04:52:27.717Z,17.31
2023-04-24T04:55:24.356Z,17.56
2023-04-24T04:58:10.056Z,17.89
2023-04-24T05:00:38.721Z,18.12
2023-04-24T05:03:22.433Z,18.18
2023-04-24T05:05:58.984Z,18.49
2023-04-24T05:08:27.776Z,18.65
2023-04-24T05:10:56.555Z,18.58
2023-04-24T05:13:38.352Z,18.80
2023-04-24T05:16:12.696Z,18.91
2023-04-24T05:18:40.405Z,19.06
2023-04-24T05:21:09.540Z,19.16
2023-04-24T05:23:38.625Z,19.37
2023-04-24T05:26:07.885Z,19.53
2023-04-24T05:28:37.821Z,19.70
2023-04-24T05:31:09.408Z,19.95
2023-04-24T05:33:36.902Z,20.21
2023-04-24T05:36:04.696Z,20.42
2023-04-24T05:38:31.764Z,20.48
2023-04-24T05:40:59.103Z,20.68
2023-04-24T05:43:26.391Z,20.84
2023-04-24T05:45:54.593Z,21.15
2023-04-24T05:48:23.522Z,21.02
2023-04-24T05:50:51.865Z,21.44
2023-04-24T05:53:19.151Z,21.55
2023-04-24T05:55:46.482Z,21.76
2023-04-24T05:58:13.878Z,21.94
2023-04-24T06:00:43.655Z,22.02
2023-04-24T06:03:11.101Z,22.05
2023-04-24T06:05:38.512Z,22.15
2023-04-24T06:08:05.508Z,22.51
2023-04-24T06:10:36.921Z,23.10
2023-04-24T06:13:04.855Z,24.43
2023-04-24T06:15:35.141Z,25.62
2023-04-24T06:18:07.723Z,26.86
2023-04-24T06:20:36.324Z,28.01
2023-04-24T06:23:03.474Z,28.66
2023-04-24T06:25:31.777Z,29.22
2023-04-24T06:27:59.284Z,29.79
2023-04-24T06:30:26.397Z,30.08
2023-04-24T06:32:53.769Z,30.20
2023-04-24T06:35:21.617Z,29.87
2023-04-24T06:37:48.677Z,29.69
2023-04-24T06:40:16.000Z,28.98
2023-04-24T06:42:43.597Z,28.70
2023-04-24T06:45:11.129Z,28.72
2023-04-24T06:47:39.098Z,28.87
2023-04-24T06:50:06.934Z,28.83
2023-04-24T06:52:34.092Z,28.89
2023-04-24T06:55:03.471Z,29.22
2023-04-24T06:57:33.296Z,29.16
2023-04-24T07:00:00.387Z,28.90
2023-04-24T07:02:27.623Z,28.89
2023-04-24T07:04:54.874Z,28.81
2023-04-24T07:07:23.566Z,28.95
2023-04-24T07:09:52.135Z,28.91
2023-04-24T07:12:21.692Z,29.00
2023-04-24T07:14:49.230Z,28.69
2023-04-24T07:17:16.273Z,28.59
2023-04-24T07:19:43.740Z,28.33
2023-04-24T07:22:17.739Z,28.34
2023-04-24T07:24:45.650Z,28.52
2023-04-24T07:27:13.237Z,27.86
2023-04-24T07:29:41.766Z,27.69
2023-04-24T07:32:10.254Z,27.62
2023-04-24T07:34:37.462Z,27.64
2023-04-24T07:37:04.635Z,27.74
2023-04-24T07:39:31.770Z,28.12
2023-04-24T07:42:00.208Z,28.51
2023-04-24T07:44:27.416Z,28.93
2023-04-24T07:46:55.068Z,29.11
2023-04-24T07:49:22.398Z,29.10
2023-04-24T07:51:50.812Z,29.38
2023-04-24T07:54:17.945Z,29.85
2023-04-24T07:56:45.459Z,30.71
2023-04-24T07:59:12.687Z,31.54
2023-04-24T08:01:39.789Z,31.70
2023-04-24T08:04:07.236Z,31.51
2023-04-24T08:06:34.602Z,31.25
2023-04-24T08:09:01.981Z,31.30
2023-04-24T08:11:29.188Z,31.48
2023-04-24T08:13:56.691Z,31.30
2023-04-24T08:16:25.265Z,31.13
2023-04-24T08:18:54.043Z,30.65
2023-04-24T08:21:21.832Z,30.04
2023-04-24T08:23:48.863Z,29.25
2023-04-24T08:26:16.072Z,28.71
2023-04-24T08:28:43.752Z,28.04
2023-04-24T08:31:11.267Z,27.86
2023-04-24T08:33:38.361Z,27.89
2023-04-24T08:36:06.545Z,27.99
2023-04-24T08:38:34.228Z,28.23
2023-04-24T08:41:02.485Z,28.25
2023-04-24T08:43:29.955Z,28.05
2023-04-24T08:45:58.362Z,27.97
2023-04-24T08:48:31.297Z,28.15
2023-04-24T08:51:00.654Z,28.43
2023-04-24T08:53:28.104Z,28.74
2023-04-24T08:55:57.865Z,29.07
2023-04-24T08:58:29.300Z,29.53
2023-04-24T09:00:56.889Z,29.27
2023-04-24T09:03:24.724Z,29.72
2023-04-24T09:05:53.618Z,29.22
2023-04-24T09:08:21.893Z,29.04
2023-04-24T09:10:51.207Z,29.31
2023-04-24T09:13:21.127Z,29.23
2023-04-24T09:15:48.301Z,29.04
2023-04-24T09:18:15.436Z,29.39
2023-04-24T09:21:01.574Z,30.21
2023-04-24T09:23:30.588Z,30.86
2023-04-24T09:25:58.846Z,31.56
2023-04-24T09:28:32.689Z,32.21
2023-04-24T09:31:07.277Z,32.45
2023-04-24T09:33:34.606Z,32.80
2023-04-24T09:36:01.933Z,33.13
2023-04-24T09:38:39.417Z,33.29
2023-04-24T09:41:08.669Z,33.52
2023-04-24T09:43:36.592Z,33.94
2023-04-24T09:46:10.685Z,34.29
2023-04-24T09:48:38.761Z,34.22
2023-04-24T09:51:12.456Z,33.97
2023-04-24T09:53:42.774Z,32.70
2023-04-24T09:56:14.227Z,31.88
2023-04-24T09:58:41.357Z,30.85
2023-04-24T10:01:08.479Z,30.22
2023-04-24T10:03:36.738Z,29.71
2023-04-24T10:06:09.923Z,29.14
2023-04-24T10:08:38.823Z,29.01
2023-04-24T10:11:06.924Z,28.75
2023-04-24T10:13:35.044Z,28.66
2023-04-24T10:16:04.500Z,28.48
2023-04-24T10:18:31.999Z,28.16
2023-04-24T10:21:01.366Z,27.84
2023-04-24T10:23:30.121Z,27.42
2023-04-24T10:25:58.025Z,27.04
2023-04-24T10:28:26.115Z,26.95
2023-04-24T10:30:56.426Z,26.67
2023-04-24T10:33:24.879Z,26.66
2023-04-24T10:35:52.923Z,26.38
2023-04-24T10:38:26.148Z,26.23
2023-04-24T10:41:07.649Z,25.89
2023-04-24T10:43:35.114Z,25.57
2023-04-24T10:46:04.372Z,25.00
2023-04-24T10:48:31.924Z,24.97
2023-04-24T10:50:59.190Z,25.16
2023-04-24T10:53:29.950Z,25.30
2023-04-24T10:56:14.614Z,25.44
2023-04-24T10:58:46.070Z,25.57
2023-04-24T11:01:31.138Z,25.82
2023-04-24T11:04:03.976Z,25.55
2023-04-24T11:06:38.395Z,25.59
2023-04-24T11:09:12.248Z,25.59
2023-04-24T11:11:45.472Z,25.56
2023-04-24T11:14:16.099Z,25.28
2023-04-24T11:16:53.649Z,25.41
2023-04-24T11:19:25.127Z,25.51
2023-04-24T11:22:14.974Z,25.72
2023-04-24T11:24:54.248Z,25.75
2023-04-24T11:27:41.254Z,25.71
2023-04-24T11:30:08.922Z,25.59
2023-04-24T11:32:44.037Z,25.43
2023-04-24T11:35:19.696Z,25.48
2023-04-24T11:40:24.266Z,25.38
2023-04-24T11:42:53.626Z,25.34
2023-04-24T11:45:25.142Z,25.24
2023-04-24T11:47:52.269Z,25.14
2023-04-24T11:50:23.908Z,25.12
2023-04-24T11:52:51.996Z,25.02
2023-04-24T11:55:19.838Z,25.16
2023-04-24T11:57:52.043Z,25.14
2023-04-24T12:00:27.455Z,25.02
2023-04-24T12:03:09.017Z,24.86
2023-04-24T12:05:37.277Z,25.03
2023-04-24T12:08:05.250Z,24.90
2023-04-24T12:10:33.854Z,24.80
2023-04-24T12:13:01.593Z,24.60
2023-04-24T12:15:28.954Z,24.41
2023-04-24T12:17:56.880Z,24.09
2023-04-24T12:20:31.323Z,24.21
2023-04-24T12:23:00.942Z,24.00
2023-04-24T12:25:30.380Z,23.89
2023-04-24T12:28:12.242Z,23.90
2023-04-24T12:30:49.907Z,23.71
2023-04-24T12:33:21.520Z,23.63
2023-04-24T12:35:50.239Z,23.66
2023-04-24T12:38:19.026Z,23.42
2023-04-24T12:40:46.118Z,23.67
2023-04-24T12:43:17.599Z,23.63
2023-04-24T12:45:46.157Z,23.61
2023-04-24T12:48:15.285Z,23.57
2023-04-24T12:50:45.932Z,23.60
2023-04-24T12:53:13.826Z,23.50
2023-04-24T12:55:41.456Z,23.52
2023-04-24T12:58:09.080Z,23.42
2023-04-24T13:00:36.297Z,23.45
2023-04-24T13:03:04.373Z,23.63
2023-04-24T13:05:31.963Z,23.61
2023-04-24T13:07:59.364Z,23.44
2023-04-24T13:10:26.515Z,23.61
2023-04-24T13:12:53.656Z,23.61
2023-04-24T13:15:21.187Z,23.67
2023-04-24T13:17:48.454Z,23.72
2023-04-24T13:20:15.583Z,23.77
2023-04-24T13:22:42.651Z,23.48
2023-04-24T13:25:10.358Z,23.53
2023-04-24T13:27:40.784Z,23.55
2023-04-24T13:30:08.649Z,23.63
2023-04-24T13:32:37.783Z,23.69
2023-04-24T13:35:05.231Z,23.40
2023-04-24T13:37:34.080Z,23.59
2023-04-24T13:40:01.245Z,23.64
2023-04-24T13:42:31.017Z,23.33
2023-04-24T13:44:58.045Z,23.49
2023-04-24T13:47:25.090Z,23.46
2023-04-24T13:49:52.451Z,23.51
2023-04-24T13:52:19.453Z,23.42
2023-04-24T13:54:46.492Z,23.45
2023-04-24T13:57:15.141Z,23.40
2023-04-24T13:59:42.294Z,23.40
2023-04-24T14:02:09.429Z,23.44
2023-04-24T14:04:36.718Z,23.30
2023-04-24T14:07:03.900Z,23.45
2023-04-24T14:09:30.884Z,23.25
2023-04-24T14:11:58.148Z,23.35
2023-04-24T14:14:25.198Z,23.32
2023-04-24T14:16:52.303Z,23.33
2023-04-24T14:19:19.474Z,23.33
2023-04-24T14:21:46.496Z,23.31
2023-04-24T14:24:13.507Z,23.31
2023-04-24T14:26:40.529Z,23.27
2023-04-24T14:29:14.599Z,22.87
2023-04-24T14:31:43.132Z,23.10
2023-04-24T14:34:10.445Z,23.02
2023-04-24T14:36:37.580Z,22.98
2023-04-24T14:39:08.355Z,22.85
2023-04-24T14:41:37.085Z,22.72
2023-04-24T14:44:05.032Z,22.73
2023-04-24T14:46:32.564Z,22.66
2023-04-24T14:48:59.742Z,22.56
2023-04-24T14:51:26.819Z,22.58
2023-04-24T14:53:54.150Z,22.44
2023-04-24T14:56:21.357Z,22.48
2023-04-24T14:58:48.440Z,22.42
2023-04-24T15:01:17.365Z,22.37
2023-04-24T15:03:45.421Z,22.38
2023-04-24T15:06:13.050Z,21.96
2023-04-24T15:08:40.100Z,22.32
2023-04-24T15:11:07.366Z,22.30
2023-04-24T15:13:34.390Z,22.21
2023-04-24T15:16:01.576Z,22.05
2023-04-24T15:18:30.112Z,22.07
2023-04-24T15:20:57.567Z,21.78
2023-04-24T15:23:24.641Z,21.91
2023-04-24T15:25:51.829Z,21.48
2023-04-24T15:28:19.075Z,21.74
2023-04-24T15:30:46.238Z,21.75
2023-04-24T15:33:13.365Z,21.76
2023-04-24T15:35:41.482Z,21.84
2023-04-24T15:38:09.098Z,21.83
2023-04-24T15:40:36.203Z,21.82
2023-04-24T15:43:03.165Z,21.77
2023-04-24T15:45:31.309Z,21.82
2023-04-24T15:47:58.575Z,21.67
2023-04-24T15:50:27.143Z,21.71
2023-04-24T15:52:54.375Z,21.65
2023-04-24T15:55:21.670Z,21.58
2023-04-24T15:57:48.929Z,21.66
2023-04-24T16:00:16.761Z,21.56
2023-04-24T16:02:43.971Z,21.54
2023-04-24T16:05:11.896Z,21.58
2023-04-24T16:07:39.470Z,21.40
2023-04-24T16:10:06.850Z,21.49
2023-04-24T16:12:33.982Z,21.41
2023-04-24T16:15:01.544Z,21.27
2023-04-24T16:17:29.196Z,21.26
2023-04-24T16:19:56.209Z,21.03
2023-04-24T16:22:23.300Z,21.00
2023-04-24T16:24:50.505Z,20.90
2023-04-24T16:27:17.600Z,20.94
2023-04-24T16:29:44.825Z,20.91
2023-04-24T16:32:11.894Z,20.86
2023-04-24T16:34:38.904Z,20.62
2023-04-24T16:37:06.831Z,20.72
2023-04-24T16:39:34.244Z,20.71
2023-04-24T16:42:01.999Z,20.54
2023-04-24T16:44:29.090Z,20.61
2023-04-24T16:46:56.896Z,20.39
2023-04-24T16:49:24.159Z,20.38
2023-04-24T16:51:51.335Z,20.39
2023-04-24T16:54:18.329Z,20.31
2023-04-24T16:56:45.380Z,20.12
2023-04-24T16:59:12.643Z,20.21
2023-04-24T17:01:39.851Z,20.16
2023-04-24T17:04:07.143Z,20.07
2023-04-24T17:06:35.038Z,20.01
2023-04-24T17:09:02.200Z,20.00
2023-04-24T17:11:31.236Z,19.98
2023-04-24T17:14:01.459Z,19.95
2023-04-24T17:16:29.167Z,19.94
2023-04-24T17:18:56.335Z,19.81
2023-04-24T17:21:23.456Z,19.85
2023-04-24T17:23:50.544Z,19.82
2023-04-24T17:26:17.633Z,19.59
2023-04-24T17:28:44.648Z,19.73
2023-04-24T17:31:11.683Z,19.64
2023-04-24T17:33:38.906Z,19.37
2023-04-24T17:36:07.408Z,19.66
2023-04-24T17:38:34.816Z,19.63
2023-04-24T17:41:01.839Z,19.56
2023-04-24T17:43:28.872Z,19.53
2023-04-24T17:45:56.570Z,19.50
2023-04-24T17:48:23.908Z,19.32
2023-04-24T17:50:51.875Z,19.35
2023-04-24T17:53:19.470Z,19.40
2023-04-24T17:55:46.849Z,19.29
2023-04-24T17:58:15.131Z,19.31
2023-04-24T18:00:42.494Z,19.10
2023-04-24T18:03:10.805Z,19.22
2023-04-24T18:05:39.464Z,19.18
2023-04-24T18:08:07.665Z,19.02
2023-04-24T18:10:38.222Z,19.01
2023-04-24T18:13:05.814Z,18.84
2023-04-24T18:15:32.989Z,18.93
2023-04-24T18:18:00.141Z,18.84
2023-04-24T18:20:27.657Z,18.79
2023-04-24T18:22:55.190Z,18.66
2023-04-24T18:25:26.967Z,18.70
2023-04-24T18:27:55.956Z,18.70
2023-04-24T18:30:24.345Z,18.67
2023-04-24T18:32:53.832Z,18.47
2023-04-24T18:35:21.650Z,18.48
2023-04-24T18:37:50.102Z,18.29
2023-04-24T18:40:17.822Z,18.55
2023-04-24T18:42:45.226Z,18.55
2023-04-24T18:45:15.246Z,18.51
2023-04-24T18:47:43.888Z,18.50
2023-04-24T18:50:11.841Z,18.53
2023-04-24T18:52:39.348Z,18.54
2023-04-24T18:55:07.259Z,18.49
2023-04-24T18:57:34.759Z,18.56
2023-04-24T19:00:02.024Z,18.61
2023-04-24T19:02:34.736Z,18.54
2023-04-24T19:05:03.299Z,18.62
2023-04-24T19:07:33.343Z,18.56
2023-04-24T19:10:00.606Z,18.56
2023-04-24T19:12:27.753Z,18.55
2023-04-24T19:14:56.270Z,18.52
2023-04-24T19:17:25.373Z,18.22
2023-04-24T19:19:52.899Z,18.38
2023-04-24T19:22:20.944Z,18.19
2023-04-24T19:24:48.121Z,18.44
2023-04-24T19:27:15.456Z,18.41
2023-04-24T19:29:42.578Z,18.38
2023-04-24T19:32:09.689Z,18.36
2023-04-24T19:34:38.384Z,18.31
2023-04-24T19:37:08.295Z,18.24
2023-04-24T19:39:35.788Z,18.21
2023-04-24T19:42:07.202Z,17.95
2023-04-24T19:44:35.018Z,18.08
2023-04-24T19:47:02.248Z,18.14
2023-04-24T19:49:29.270Z,18.09
2023-04-24T19:51:56.376Z,18.02
2023-04-24T19:54:23.786Z,17.91
2023-04-24T19:56:51.073Z,17.90
2023-04-24T19:59:18.138Z,17.72
2023-04-24T20:01:45.438Z,17.89
2023-04-24T20:04:12.775Z,17.45
2023-04-24T20:06:40.142Z,17.77
2023-04-24T20:09:07.273Z,17.79
2023-04-24T20:11:34.604Z,17.72
2023-04-24T20:14:03.735Z,17.59
2023-04-24T20:16:31.423Z,17.67
2023-04-24T20:18:59.411Z,17.65
2023-04-24T20:21:26.882Z,17.63
2023-04-24T20:23:54.251Z,17.44
2023-04-24T20:26:21.670Z,17.47
2023-04-24T20:28:49.121Z,17.40
2023-04-24T20:31:16.620Z,17.35
2023-04-24T20:33:45.695Z,17.14
2023-04-24T20:36:12.867Z,17.14
2023-04-24T20:38:40.010Z,17.12
2023-04-24T20:41:08.948Z,17.13
2023-04-24T20:43:36.768Z,17.02
2023-04-24T20:46:03.980Z,17.04
2023-04-24T20:48:31.610Z,16.93
2023-04-24T20:50:58.780Z,16.89
2023-04-24T20:53:25.937Z,16.85
2023-04-24T20:55:53.077Z,16.70
2023-04-24T20:58:22.198Z,16.63
2023-04-24T21:00:49.959Z,16.63
2023-04-24T21:03:17.214Z,16.59
2023-04-24T21:05:44.405Z,16.49
2023-04-24T21:08:12.191Z,16.39
2023-04-24T21:10:39.237Z,16.29
2023-04-24T21:13:06.304Z,16.36
2023-04-24T21:15:34.209Z,16.27
2023-04-24T21:18:01.927Z,16.33
2023-04-24T21:20:29.115Z,16.24
2023-04-24T21:22:56.201Z,16.31
2023-04-24T21:25:23.320Z,16.29
2023-04-24T21:27:50.366Z,16.27
2023-04-24T21:30:17.545Z,16.19
2023-04-24T21:32:44.836Z,16.17
2023-04-24T21:35:11.889Z,16.07
2023-04-24T21:37:39.940Z,16.06
2023-04-24T21:40:08.242Z,16.07
2023-04-24T21:42:35.830Z,15.84
2023-04-24T21:45:03.171Z,16.04
2023-04-24T21:47:32.324Z,15.95
2023-04-24T21:49:59.408Z,15.96
2023-04-24T21:52:26.486Z,15.89
2023-04-24T21:54:53.579Z,15.86
2023-04-24T21:57:20.894Z,15.84
2023-04-24T21:59:48.273Z,15.77
2023-04-24T22:02:15.501Z,15.76
2023-04-24T22:04:43.197Z,15.70
2023-04-24T22:07:10.394Z,15.44
2023-04-24T22:09:38.857Z,15.54
2023-04-24T22:12:06.150Z,15.29
2023-04-24T22:14:33.324Z,15.42
2023-04-24T22:17:00.393Z,15.40
2023-04-24T22:19:28.431Z,15.50
2023-04-24T22:21:55.600Z,15.49
2023-04-24T22:24:22.761Z,15.46
2023-04-24T22:26:50.076Z,15.43
2023-04-24T22:29:17.108Z,15.32
2023-04-24T22:31:45.842Z,15.21
2023-04-24T22:34:12.928Z,14.90
2023-04-24T22:36:39.960Z,15.16
2023-04-24T22:39:07.477Z,15.12
2023-04-24T22:41:34.768Z,15.22
2023-04-24T22:44:02.318Z,15.19
2023-04-24T22:46:31.234Z,14.79
2023-04-24T22:48:58.586Z,15.08
2023-04-24T22:51:26.194Z,15.10
2023-04-24T22:53:54.667Z,14.99
2023-04-24T22:56:21.819Z,15.08
2023-04-24T22:58:48.820Z,15.09
2023-04-24T23:01:15.882Z,15.04
2023-04-24T23:03:43.463Z,14.97
2023-04-24T23:06:10.800Z,14.97
2023-04-24T23:08:37.874Z,14.97
2023-04-24T23:11:04.983Z,14.91
2023-04-24T23:13:32.078Z,14.85
2023-04-24T23:15:59.131Z,14.92
2023-04-24T23:18:26.214Z,14.93
2023-04-24T23:20:53.349Z,14.91
2023-04-24T23:23:20.388Z,14.88
2023-04-24T23:25:47.591Z,14.90
2023-04-24T23:28:14.696Z,14.85
2023-04-24T23:30:43.310Z,14.84
2023-04-24T23:33:11.002Z,14.82
2023-04-24T23:35:38.074Z,14.70
2023-04-24T23:38:05.132Z,14.69
2023-04-24T23:40:32.115Z,14.82
2023-04-24T23:43:06.687Z,14.88
2023-04-24T23:45:35.605Z,14.90
2023-04-24T23:48:04.195Z,14.70
2023-04-24T23:50:31.424Z,14.74
2023-04-24T23:52:59.333Z,14.75
2023-04-24T23:55:26.367Z,14.69
2023-04-24T23:57:53.911Z,14.69
